sensor_id;sensor_type;location;lat;lon;timestamp;temperature;humidity
44695;DHT22;32845;59.422;17.930;2022-11-20T00:03:12;0.80;99.90
44695;DHT22;32845;59.422;17.930;2022-11-20T00:07:42;0.80;99.90
44695;DHT22;32845;59.422;17.930;2022-11-20T00:12:13;0.80;99.90
44695;DHT22;32845;59.422;17.930;2022-11-20T00:16:44;0.80;99.90
44695;DHT22;32845;59.422;17.930;2022-11-20T00:21:16;0.80;99.90
44695;DHT22;32845;59.422;17.930;2022-11-20T00:26:00;0.80;99.90
44695;DHT22;32845;59.422;17.930;2022-11-20T00:30:30;0.80;99.90
44695;DHT22;32845;59.422;17.930;2022-11-20T00:35:01;0.80;99.90
44695;DHT22;32845;59.422;17.930;2022-11-20T00:39:32;0.80;99.90
44695;DHT22;32845;59.422;17.930;2022-11-20T00:44:02;0.80;99.90
44695;DHT22;32845;59.422;17.930;2022-11-20T00:48:33;0.80;99.90
44695;DHT22;32845;59.422;17.930;2022-11-20T00:53:08;0.80;99.90
44695;DHT22;32845;59.422;17.930;2022-11-20T00:57:39;0.80;99.90
44695;DHT22;32845;59.422;17.930;2022-11-20T01:02:09;0.80;99.90
44695;DHT22;32845;59.422;17.930;2022-11-20T01:06:40;0.70;99.90
44695;DHT22;32845;59.422;17.930;2022-11-20T01:11:14;0.70;99.90
44695;DHT22;32845;59.422;17.930;2022-11-20T01:15:45;0.70;99.90
44695;DHT22;32845;59.422;17.930;2022-11-20T01:20:15;0.70;99.90
44695;DHT22;32845;59.422;17.930;2022-11-20T01:24:46;0.70;99.90
44695;DHT22;32845;59.422;17.930;2022-11-20T01:29:18;0.70;99.90
44695;DHT22;32845;59.422;17.930;2022-11-20T01:33:55;0.70;99.90
44695;DHT22;32845;59.422;17.930;2022-11-20T01:38:26;0.70;99.90
44695;DHT22;32845;59.422;17.930;2022-11-20T01:43:13;0.70;99.90
44695;DHT22;32845;59.422;17.930;2022-11-20T01:47:53;0.70;99.90
44695;DHT22;32845;59.422;17.930;2022-11-20T01:52:24;0.60;99.90
44695;DHT22;32845;59.422;17.930;2022-11-20T01:56:57;0.60;99.90
44695;DHT22;32845;59.422;17.930;2022-11-20T02:01:29;0.60;99.90
44695;DHT22;32845;59.422;17.930;2022-11-20T02:06:04;0.60;99.90
44695;DHT22;32845;59.422;17.930;2022-11-20T02:10:37;0.60;99.90
44695;DHT22;32845;59.422;17.930;2022-11-20T02:15:08;0.60;99.90
44695;DHT22;32845;59.422;17.930;2022-11-20T02:19:38;0.60;99.90
44695;DHT22;32845;59.422;17.930;2022-11-20T02:24:15;0.60;99.90
44695;DHT22;32845;59.422;17.930;2022-11-20T02:28:45;0.60;99.90
44695;DHT22;32845;59.422;17.930;2022-11-20T02:33:21;0.60;99.90
44695;DHT22;32845;59.422;17.930;2022-11-20T02:37:53;0.60;99.90
44695;DHT22;32845;59.422;17.930;2022-11-20T02:42:24;0.60;99.90
44695;DHT22;32845;59.422;17.930;2022-11-20T02:46:56;0.60;99.90
44695;DHT22;32845;59.422;17.930;2022-11-20T02:51:27;0.60;99.90
44695;DHT22;32845;59.422;17.930;2022-11-20T02:55:57;0.60;99.90
44695;DHT22;32845;59.422;17.930;2022-11-20T03:00:28;0.60;99.90
44695;DHT22;32845;59.422;17.930;2022-11-20T03:04:58;0.50;99.90
44695;DHT22;32845;59.422;17.930;2022-11-20T03:09:29;0.50;99.90
44695;DHT22;32845;59.422;17.930;2022-11-20T03:14:18;0.50;99.90
44695;DHT22;32845;59.422;17.930;2022-11-20T03:18:49;0.60;99.90
44695;DHT22;32845;59.422;17.930;2022-11-20T03:23:25;0.50;99.90
44695;DHT22;32845;59.422;17.930;2022-11-20T03:27:55;0.50;99.90
44695;DHT22;32845;59.422;17.930;2022-11-20T03:32:26;0.50;99.90
44695;DHT22;32845;59.422;17.930;2022-11-20T03:36:56;0.50;99.90
44695;DHT22;32845;59.422;17.930;2022-11-20T03:41:28;0.50;99.90
44695;DHT22;32845;59.422;17.930;2022-11-20T03:45:59;0.50;99.90
44695;DHT22;32845;59.422;17.930;2022-11-20T03:50:29;0.40;99.90
44695;DHT22;32845;59.422;17.930;2022-11-20T03:55:00;0.40;99.90
44695;DHT22;32845;59.422;17.930;2022-11-20T03:59:31;0.40;99.90
44695;DHT22;32845;59.422;17.930;2022-11-20T04:04:01;0.40;99.90
44695;DHT22;32845;59.422;17.930;2022-11-20T04:08:32;0.40;99.90
44695;DHT22;32845;59.422;17.930;2022-11-20T04:13:03;0.40;99.90
44695;DHT22;32845;59.422;17.930;2022-11-20T04:17:33;0.40;99.90
44695;DHT22;32845;59.422;17.930;2022-11-20T04:22:04;0.40;99.90
44695;DHT22;32845;59.422;17.930;2022-11-20T04:26:34;0.40;99.90
44695;DHT22;32845;59.422;17.930;2022-11-20T04:31:12;0.40;99.90
44695;DHT22;32845;59.422;17.930;2022-11-20T04:35:43;0.40;99.90
44695;DHT22;32845;59.422;17.930;2022-11-20T04:40:15;0.40;99.90
44695;DHT22;32845;59.422;17.930;2022-11-20T04:44:55;0.40;99.90
44695;DHT22;32845;59.422;17.930;2022-11-20T04:49:26;0.40;99.90
44695;DHT22;32845;59.422;17.930;2022-11-20T04:54:01;0.40;99.90
44695;DHT22;32845;59.422;17.930;2022-11-20T04:58:32;0.40;99.90
44695;DHT22;32845;59.422;17.930;2022-11-20T05:03:03;0.50;99.90
44695;DHT22;32845;59.422;17.930;2022-11-20T05:07:34;0.40;99.90
44695;DHT22;32845;59.422;17.930;2022-11-20T05:12:13;0.50;99.90
44695;DHT22;32845;59.422;17.930;2022-11-20T05:16:45;0.50;99.90
44695;DHT22;32845;59.422;17.930;2022-11-20T05:21:16;0.50;99.90
44695;DHT22;32845;59.422;17.930;2022-11-20T05:25:47;0.40;99.90
44695;DHT22;32845;59.422;17.930;2022-11-20T05:30:17;0.40;99.90
44695;DHT22;32845;59.422;17.930;2022-11-20T05:34:53;0.40;99.90
44695;DHT22;32845;59.422;17.930;2022-11-20T05:39:23;0.30;99.90
44695;DHT22;32845;59.422;17.930;2022-11-20T05:44:03;0.30;99.90
44695;DHT22;32845;59.422;17.930;2022-11-20T05:48:34;0.30;99.90
44695;DHT22;32845;59.422;17.930;2022-11-20T05:53:05;0.30;99.90
44695;DHT22;32845;59.422;17.930;2022-11-20T05:57:35;0.30;99.90
44695;DHT22;32845;59.422;17.930;2022-11-20T06:02:06;0.30;99.90
44695;DHT22;32845;59.422;17.930;2022-11-20T06:06:36;0.30;99.90
44695;DHT22;32845;59.422;17.930;2022-11-20T06:11:08;0.30;99.90
44695;DHT22;32845;59.422;17.930;2022-11-20T06:15:38;0.30;99.90
44695;DHT22;32845;59.422;17.930;2022-11-20T06:20:09;0.40;99.90
44695;DHT22;32845;59.422;17.930;2022-11-20T06:24:40;0.30;99.90
44695;DHT22;32845;59.422;17.930;2022-11-20T06:29:10;0.30;99.90
44695;DHT22;32845;59.422;17.930;2022-11-20T06:33:41;0.30;99.90
44695;DHT22;32845;59.422;17.930;2022-11-20T06:38:12;0.30;99.90
44695;DHT22;32845;59.422;17.930;2022-11-20T06:42:42;0.30;99.90
44695;DHT22;32845;59.422;17.930;2022-11-20T06:47:13;0.30;99.90
44695;DHT22;32845;59.422;17.930;2022-11-20T06:51:43;0.30;99.90
44695;DHT22;32845;59.422;17.930;2022-11-20T06:56:14;0.30;99.90
44695;DHT22;32845;59.422;17.930;2022-11-20T07:00:44;0.30;99.90
44695;DHT22;32845;59.422;17.930;2022-11-20T07:05:15;0.30;99.90
44695;DHT22;32845;59.422;17.930;2022-11-20T07:09:46;0.30;99.90
44695;DHT22;32845;59.422;17.930;2022-11-20T07:14:16;0.30;99.90
44695;DHT22;32845;59.422;17.930;2022-11-20T07:18:47;0.30;99.90
44695;DHT22;32845;59.422;17.930;2022-11-20T07:23:23;0.30;99.90
44695;DHT22;32845;59.422;17.930;2022-11-20T07:27:57;0.30;99.90
44695;DHT22;32845;59.422;17.930;2022-11-20T07:32:27;0.30;99.90
44695;DHT22;32845;59.422;17.930;2022-11-20T07:36:58;0.30;99.90
44695;DHT22;32845;59.422;17.930;2022-11-20T07:41:28;0.30;99.90
44695;DHT22;32845;59.422;17.930;2022-11-20T07:45:59;0.30;99.90
44695;DHT22;32845;59.422;17.930;2022-11-20T07:50:30;0.30;99.90
44695;DHT22;32845;59.422;17.930;2022-11-20T07:55:00;0.30;99.90
44695;DHT22;32845;59.422;17.930;2022-11-20T07:59:31;0.40;99.90
44695;DHT22;32845;59.422;17.930;2022-11-20T08:04:01;0.40;99.90
44695;DHT22;32845;59.422;17.930;2022-11-20T08:08:32;0.40;99.90
44695;DHT22;32845;59.422;17.930;2022-11-20T08:13:03;0.50;99.90
44695;DHT22;32845;59.422;17.930;2022-11-20T08:17:51;0.50;99.90
44695;DHT22;32845;59.422;17.930;2022-11-20T08:22:22;0.60;99.90
44695;DHT22;32845;59.422;17.930;2022-11-20T08:26:53;0.60;99.90
44695;DHT22;32845;59.422;17.930;2022-11-20T08:31:24;0.60;99.90
44695;DHT22;32845;59.422;17.930;2022-11-20T08:36:04;0.70;99.90
44695;DHT22;32845;59.422;17.930;2022-11-20T08:40:35;0.70;99.90
44695;DHT22;32845;59.422;17.930;2022-11-20T08:45:15;0.70;99.90
44695;DHT22;32845;59.422;17.930;2022-11-20T08:49:46;0.70;99.90
44695;DHT22;32845;59.422;17.930;2022-11-20T08:54:25;0.80;99.90
44695;DHT22;32845;59.422;17.930;2022-11-20T08:58:56;0.80;99.90
44695;DHT22;32845;59.422;17.930;2022-11-20T09:03:26;0.80;99.90
44695;DHT22;32845;59.422;17.930;2022-11-20T09:07:57;0.90;99.90
44695;DHT22;32845;59.422;17.930;2022-11-20T09:12:28;0.90;99.90
44695;DHT22;32845;59.422;17.930;2022-11-20T09:16:59;0.90;99.90
44695;DHT22;32845;59.422;17.930;2022-11-20T09:21:29;0.90;99.90
44695;DHT22;32845;59.422;17.930;2022-11-20T09:26:11;0.90;99.90
44695;DHT22;32845;59.422;17.930;2022-11-20T09:30:42;0.90;99.90
44695;DHT22;32845;59.422;17.930;2022-11-20T09:35:12;0.90;99.90
44695;DHT22;32845;59.422;17.930;2022-11-20T09:39:44;0.90;99.90
44695;DHT22;32845;59.422;17.930;2022-11-20T09:54:27;0.90;99.90
44695;DHT22;32845;59.422;17.930;2022-11-20T09:58:50;0.90;99.90
44695;DHT22;32845;59.422;17.930;2022-11-20T10:08:22;1.00;99.90
44695;DHT22;32845;59.422;17.930;2022-11-20T10:13:08;0.90;99.90
44695;DHT22;32845;59.422;17.930;2022-11-20T10:32:11;0.90;99.90
44695;DHT22;32845;59.422;17.930;2022-11-20T10:36:46;1.00;99.90
44695;DHT22;32845;59.422;17.930;2022-11-20T10:41:28;1.00;99.90
44695;DHT22;32845;59.422;17.930;2022-11-20T10:50:40;1.00;99.90
44695;DHT22;32845;59.422;17.930;2022-11-20T11:04:38;1.00;99.90
44695;DHT22;32845;59.422;17.930;2022-11-20T11:09:16;1.10;99.90
44695;DHT22;32845;59.422;17.930;2022-11-20T11:13:53;1.10;99.90
44695;DHT22;32845;59.422;17.930;2022-11-20T11:18:33;1.10;99.90
44695;DHT22;32845;59.422;17.930;2022-11-20T11:23:29;1.10;99.90
44695;DHT22;32845;59.422;17.930;2022-11-20T11:28:00;1.10;99.90
44695;DHT22;32845;59.422;17.930;2022-11-20T11:32:40;1.20;99.90
44695;DHT22;32845;59.422;17.930;2022-11-20T11:37:17;1.20;99.90
44695;DHT22;32845;59.422;17.930;2022-11-20T11:41:48;1.20;99.90
44695;DHT22;32845;59.422;17.930;2022-11-20T11:46:24;1.20;99.90
44695;DHT22;32845;59.422;17.930;2022-11-20T11:50:55;1.20;99.90
44695;DHT22;32845;59.422;17.930;2022-11-20T12:00:09;1.20;99.90
44695;DHT22;32845;59.422;17.930;2022-11-20T12:04:44;1.20;99.90
44695;DHT22;32845;59.422;17.930;2022-11-20T12:09:16;1.20;99.90
44695;DHT22;32845;59.422;17.930;2022-11-20T12:13:58;1.20;99.90
44695;DHT22;32845;59.422;17.930;2022-11-20T12:18:32;1.20;99.90
44695;DHT22;32845;59.422;17.930;2022-11-20T12:23:08;1.20;99.90
44695;DHT22;32845;59.422;17.930;2022-11-20T12:46:46;1.20;99.90
44695;DHT22;32845;59.422;17.930;2022-11-20T12:56:21;1.20;99.90
44695;DHT22;32845;59.422;17.930;2022-11-20T13:06:17;1.10;99.90
44695;DHT22;32845;59.422;17.930;2022-11-20T13:20:13;1.10;99.90
44695;DHT22;32845;59.422;17.930;2022-11-20T13:24:49;1.10;99.90
44695;DHT22;32845;59.422;17.930;2022-11-20T13:29:20;1.10;99.90
44695;DHT22;32845;59.422;17.930;2022-11-20T13:33:51;1.10;99.90
44695;DHT22;32845;59.422;17.930;2022-11-20T13:38:23;1.10;99.90
44695;DHT22;32845;59.422;17.930;2022-11-20T13:43:08;1.10;99.90
44695;DHT22;32845;59.422;17.930;2022-11-20T13:47:46;1.10;99.90
44695;DHT22;32845;59.422;17.930;2022-11-20T14:01:36;1.10;99.90
44695;DHT22;32845;59.422;17.930;2022-11-20T14:06:26;1.10;99.90
44695;DHT22;32845;59.422;17.930;2022-11-20T14:11:04;1.00;99.90
44695;DHT22;32845;59.422;17.930;2022-11-20T14:15:40;1.00;99.90
44695;DHT22;32845;59.422;17.930;2022-11-20T14:20:14;1.00;99.90
44695;DHT22;32845;59.422;17.930;2022-11-20T14:24:45;0.90;99.90
44695;DHT22;32845;59.422;17.930;2022-11-20T14:29:21;1.00;99.90
44695;DHT22;32845;59.422;17.930;2022-11-20T14:33:52;0.90;99.90
44695;DHT22;32845;59.422;17.930;2022-11-20T14:38:27;0.90;99.90
44695;DHT22;32845;59.422;17.930;2022-11-20T14:47:58;0.90;99.90
44695;DHT22;32845;59.422;17.930;2022-11-20T14:52:38;0.90;99.90
44695;DHT22;32845;59.422;17.930;2022-11-20T14:57:23;0.80;99.90
44695;DHT22;32845;59.422;17.930;2022-11-20T15:01:55;0.80;99.90
44695;DHT22;32845;59.422;17.930;2022-11-20T15:06:27;0.80;99.90
44695;DHT22;32845;59.422;17.930;2022-11-20T15:10:58;0.70;99.90
44695;DHT22;32845;59.422;17.930;2022-11-20T15:20:05;0.60;99.90
44695;DHT22;32845;59.422;17.930;2022-11-20T15:24:40;0.60;99.90
44695;DHT22;32845;59.422;17.930;2022-11-20T15:29:11;0.60;99.90
44695;DHT22;32845;59.422;17.930;2022-11-20T15:33:42;0.50;99.90
44695;DHT22;32845;59.422;17.930;2022-11-20T15:38:12;0.50;99.90
44695;DHT22;32845;59.422;17.930;2022-11-20T15:42:53;0.50;99.90
44695;DHT22;32845;59.422;17.930;2022-11-20T15:47:33;0.50;99.90
44695;DHT22;32845;59.422;17.930;2022-11-20T15:52:04;0.40;99.90
44695;DHT22;32845;59.422;17.930;2022-11-20T15:56:34;0.40;99.90
44695;DHT22;32845;59.422;17.930;2022-11-20T16:01:05;0.40;99.90
44695;DHT22;32845;59.422;17.930;2022-11-20T16:05:36;0.30;99.90
44695;DHT22;32845;59.422;17.930;2022-11-20T16:10:06;0.30;99.90
44695;DHT22;32845;59.422;17.930;2022-11-20T16:14:37;0.30;99.90
44695;DHT22;32845;59.422;17.930;2022-11-20T16:19:26;0.30;99.90
44695;DHT22;32845;59.422;17.930;2022-11-20T16:24:00;0.30;99.90
44695;DHT22;32845;59.422;17.930;2022-11-20T16:28:31;0.30;99.90
44695;DHT22;32845;59.422;17.930;2022-11-20T16:33:03;0.30;99.90
44695;DHT22;32845;59.422;17.930;2022-11-20T16:37:33;0.20;99.90
44695;DHT22;32845;59.422;17.930;2022-11-20T16:42:04;0.20;99.90
44695;DHT22;32845;59.422;17.930;2022-11-20T16:46:35;0.20;99.90
44695;DHT22;32845;59.422;17.930;2022-11-20T16:51:07;0.20;99.90
44695;DHT22;32845;59.422;17.930;2022-11-20T16:55:38;0.20;99.90
44695;DHT22;32845;59.422;17.930;2022-11-20T17:00:08;0.20;99.90
44695;DHT22;32845;59.422;17.930;2022-11-20T17:04:39;0.20;99.90
44695;DHT22;32845;59.422;17.930;2022-11-20T17:09:10;0.20;99.90
44695;DHT22;32845;59.422;17.930;2022-11-20T17:13:57;0.20;99.90
44695;DHT22;32845;59.422;17.930;2022-11-20T17:18:29;0.20;99.90
44695;DHT22;32845;59.422;17.930;2022-11-20T17:23:00;0.20;99.90
44695;DHT22;32845;59.422;17.930;2022-11-20T17:27:31;0.20;99.90
44695;DHT22;32845;59.422;17.930;2022-11-20T17:32:01;0.20;99.90
44695;DHT22;32845;59.422;17.930;2022-11-20T17:36:32;0.20;99.90
44695;DHT22;32845;59.422;17.930;2022-11-20T17:41:04;0.30;99.90
44695;DHT22;32845;59.422;17.930;2022-11-20T17:45:35;0.30;99.90
44695;DHT22;32845;59.422;17.930;2022-11-20T17:50:05;0.30;99.90
44695;DHT22;32845;59.422;17.930;2022-11-20T17:54:36;0.30;99.90
44695;DHT22;32845;59.422;17.930;2022-11-20T17:59:07;0.30;99.90
44695;DHT22;32845;59.422;17.930;2022-11-20T18:03:44;0.30;99.90
44695;DHT22;32845;59.422;17.930;2022-11-20T18:08:14;0.30;99.90
44695;DHT22;32845;59.422;17.930;2022-11-20T18:12:45;0.20;99.90
44695;DHT22;32845;59.422;17.930;2022-11-20T18:17:16;0.20;99.90
44695;DHT22;32845;59.422;17.930;2022-11-20T18:21:46;0.20;99.90
44695;DHT22;32845;59.422;17.930;2022-11-20T18:26:22;0.20;99.90
44695;DHT22;32845;59.422;17.930;2022-11-20T18:30:53;0.30;99.90
44695;DHT22;32845;59.422;17.930;2022-11-20T18:35:25;0.30;99.90
44695;DHT22;32845;59.422;17.930;2022-11-20T18:39:56;0.30;99.90
44695;DHT22;32845;59.422;17.930;2022-11-20T18:49:29;0.40;99.90
44695;DHT22;32845;59.422;17.930;2022-11-20T18:54:05;0.40;99.90
44695;DHT22;32845;59.422;17.930;2022-11-20T18:58:35;0.40;99.90
44695;DHT22;32845;59.422;17.930;2022-11-20T19:03:06;0.40;99.90
44695;DHT22;32845;59.422;17.930;2022-11-20T19:07:40;0.40;99.90
44695;DHT22;32845;59.422;17.930;2022-11-20T19:12:19;0.40;99.90
44695;DHT22;32845;59.422;17.930;2022-11-20T19:16:50;0.40;99.90
44695;DHT22;32845;59.422;17.930;2022-11-20T19:21:22;0.50;99.90
44695;DHT22;32845;59.422;17.930;2022-11-20T19:25:57;0.50;99.90
44695;DHT22;32845;59.422;17.930;2022-11-20T19:30:27;0.60;99.90
44695;DHT22;32845;59.422;17.930;2022-11-20T19:34:58;0.70;99.90
44695;DHT22;32845;59.422;17.930;2022-11-20T19:39:28;0.80;99.90
44695;DHT22;32845;59.422;17.930;2022-11-20T19:48:30;0.80;99.90
44695;DHT22;32845;59.422;17.930;2022-11-20T19:53:06;0.80;99.90
44695;DHT22;32845;59.422;17.930;2022-11-20T19:57:36;0.70;99.90
44695;DHT22;32845;59.422;17.930;2022-11-20T20:02:09;0.70;99.90
44695;DHT22;32845;59.422;17.930;2022-11-20T20:06:40;0.70;99.90
44695;DHT22;32845;59.422;17.930;2022-11-20T20:15:41;0.60;99.90
44695;DHT22;32845;59.422;17.930;2022-11-20T20:20:12;0.60;99.90
44695;DHT22;32845;59.422;17.930;2022-11-20T20:24:51;0.70;99.90
44695;DHT22;32845;59.422;17.930;2022-11-20T20:29:22;0.60;99.90
44695;DHT22;32845;59.422;17.930;2022-11-20T20:34:08;0.70;99.90
44695;DHT22;32845;59.422;17.930;2022-11-20T20:38:38;0.60;99.90
44695;DHT22;32845;59.422;17.930;2022-11-20T20:43:14;0.60;99.90
44695;DHT22;32845;59.422;17.930;2022-11-20T20:47:45;0.60;99.90
44695;DHT22;32845;59.422;17.930;2022-11-20T20:52:15;0.60;99.90
44695;DHT22;32845;59.422;17.930;2022-11-20T20:56:46;0.60;99.90
44695;DHT22;32845;59.422;17.930;2022-11-20T21:01:17;0.60;99.90
44695;DHT22;32845;59.422;17.930;2022-11-20T21:05:53;0.60;99.90
44695;DHT22;32845;59.422;17.930;2022-11-20T21:10:24;0.60;99.90
44695;DHT22;32845;59.422;17.930;2022-11-20T21:15:00;0.60;99.90
44695;DHT22;32845;59.422;17.930;2022-11-20T21:19:31;0.60;99.90
44695;DHT22;32845;59.422;17.930;2022-11-20T21:28:52;0.50;99.90
44695;DHT22;32845;59.422;17.930;2022-11-20T21:33:23;0.50;99.90
44695;DHT22;32845;59.422;17.930;2022-11-20T21:37:53;0.50;99.90
44695;DHT22;32845;59.422;17.930;2022-11-20T21:42:29;0.50;99.90
44695;DHT22;32845;59.422;17.930;2022-11-20T21:46:59;0.40;99.90
44695;DHT22;32845;59.422;17.930;2022-11-20T21:51:30;0.40;99.90
44695;DHT22;32845;59.422;17.930;2022-11-20T21:56:06;0.40;99.90
44695;DHT22;32845;59.422;17.930;2022-11-20T22:00:37;0.30;99.90
44695;DHT22;32845;59.422;17.930;2022-11-20T22:05:08;0.30;99.90
44695;DHT22;32845;59.422;17.930;2022-11-20T22:09:38;0.30;99.90
44695;DHT22;32845;59.422;17.930;2022-11-20T22:14:18;0.30;99.90
44695;DHT22;32845;59.422;17.930;2022-11-20T22:18:52;0.30;99.90
44695;DHT22;32845;59.422;17.930;2022-11-20T22:23:23;0.30;99.90
44695;DHT22;32845;59.422;17.930;2022-11-20T22:27:54;0.30;99.90
44695;DHT22;32845;59.422;17.930;2022-11-20T22:32:24;0.30;99.90
44695;DHT22;32845;59.422;17.930;2022-11-20T22:36:55;0.30;99.90
44695;DHT22;32845;59.422;17.930;2022-11-20T22:41:26;0.30;99.90
44695;DHT22;32845;59.422;17.930;2022-11-20T22:46:04;0.40;99.90
44695;DHT22;32845;59.422;17.930;2022-11-20T22:50:35;0.50;99.90
44695;DHT22;32845;59.422;17.930;2022-11-20T22:55:15;0.50;99.90
44695;DHT22;32845;59.422;17.930;2022-11-20T22:59:45;0.60;99.90
44695;DHT22;32845;59.422;17.930;2022-11-20T23:04:26;0.60;99.90
44695;DHT22;32845;59.422;17.930;2022-11-20T23:08:56;0.50;99.90
44695;DHT22;32845;59.422;17.930;2022-11-20T23:13:35;0.50;99.90
44695;DHT22;32845;59.422;17.930;2022-11-20T23:18:06;0.50;99.90
44695;DHT22;32845;59.422;17.930;2022-11-20T23:22:37;0.50;99.90
44695;DHT22;32845;59.422;17.930;2022-11-20T23:27:07;0.50;99.90
44695;DHT22;32845;59.422;17.930;2022-11-20T23:31:38;0.50;99.90
44695;DHT22;32845;59.422;17.930;2022-11-20T23:36:09;0.50;99.90
44695;DHT22;32845;59.422;17.930;2022-11-20T23:40:39;0.50;99.90
44695;DHT22;32845;59.422;17.930;2022-11-20T23:45:15;0.50;99.90
44695;DHT22;32845;59.422;17.930;2022-11-20T23:49:45;0.50;99.90
44695;DHT22;32845;59.422;17.930;2022-11-20T23:54:16;0.50;99.90
44695;DHT22;32845;59.422;17.930;2022-11-20T23:58:46;0.50;99.90
